Time;durP1;ratioP1;P1;durP2;ratioP2;P2;SDS_P1;SDS_P2;PMS_P1;PMS_P2;Temp;Humidity;BMP_temperature;BMP_pressure;BME280_temperature;BME280_humidity;BME280_pressure;Samples;Min_cycle;Max_cycle;Signal;HPM_P1;HPM_P2
2021/01/10 00:00:45;;;;;;;15.50;9.07;;;0.70;88.80;;;;;;5094537;28;20032;-74
2021/01/10 00:03:13;;;;;;;20.07;9.77;;;0.70;88.90;;;;;;5094397;28;20020;-73
2021/01/10 00:05:41;;;;;;;23.77;11.10;;;0.60;89.00;;;;;;5094211;28;20038;-73
2021/01/10 00:08:06;;;;;;;33.20;15.20;;;0.60;89.10;;;;;;5092835;28;20035;-73
2021/01/10 00:10:32;;;;;;;35.70;17.00;;;0.60;89.30;;;;;;5094613;28;20024;-73
2021/01/10 00:13:02;;;;;;;33.83;17.77;;;0.60;89.30;;;;;;5094478;28;20032;-73
2021/01/10 00:15:29;;;;;;;29.97;15.47;;;0.50;89.30;;;;;;5092595;28;20036;-73
2021/01/10 00:17:55;;;;;;;28.83;15.33;;;0.50;89.40;;;;;;5092959;28;20055;-73
2021/01/10 00:20:21;;;;;;;29.70;15.50;;;0.50;89.50;;;;;;5094088;28;20349;-73
2021/01/10 00:22:57;;;;;;;23.13;11.80;;;0.50;89.50;;;;;;5094147;28;20020;-73
2021/01/10 00:25:23;;;;;;;20.93;11.13;;;0.50;89.60;;;;;;5093895;28;20025;-73
2021/01/10 00:27:49;;;;;;;25.47;11.23;;;0.50;89.70;;;;;;5093654;28;20109;-73
2021/01/10 00:30:18;;;;;;;24.20;11.67;;;0.40;89.70;;;;;;5092318;28;20145;-73
2021/01/10 00:32:54;;;;;;;22.73;10.37;;;0.50;89.80;;;;;;5075666;28;20036;-73
2021/01/10 00:35:22;;;;;;;17.33;9.40;;;0.40;89.70;;;;;;5093633;28;20035;-73
2021/01/10 00:37:55;;;;;;;19.77;9.67;;;0.40;89.80;;;;;;5093981;28;20043;-73
2021/01/10 00:40:22;;;;;;;19.73;10.10;;;0.40;89.80;;;;;;5093608;28;20028;-73
2021/01/10 00:42:48;;;;;;;19.17;9.20;;;0.40;89.90;;;;;;5092000;28;20023;-73
2021/01/10 00:45:14;;;;;;;18.43;9.00;;;0.40;89.80;;;;;;5093437;28;20379;-73
2021/01/10 00:47:40;;;;;;;19.50;9.27;;;0.30;89.70;;;;;;5093569;28;20039;-73
2021/01/10 00:50:07;;;;;;;17.43;9.47;;;0.30;89.70;;;;;;5093302;28;20274;-73
2021/01/10 00:52:33;;;;;;;18.80;9.77;;;0.30;89.80;;;;;;5093429;28;20127;-73
2021/01/10 00:54:59;;;;;;;19.80;10.33;;;0.30;89.90;;;;;;5092776;28;20520;-73
2021/01/10 00:57:25;;;;;;;16.23;9.33;;;0.30;90.00;;;;;;5092593;28;20033;-74
2021/01/10 00:59:50;;;;;;;17.53;10.27;;;0.30;89.90;;;;;;5093810;28;20020;-74
2021/01/10 01:02:16;;;;;;;18.23;8.97;;;0.30;89.90;;;;;;5093473;28;20085;-73
2021/01/10 01:04:42;;;;;;;17.30;9.00;;;0.30;89.80;;;;;;5092297;28;20020;-73
2021/01/10 01:07:08;;;;;;;17.43;9.10;;;0.20;89.80;;;;;;5092140;28;20039;-73
2021/01/10 01:09:34;;;;;;;20.47;9.77;;;0.20;89.90;;;;;;5092157;28;20051;-73
2021/01/10 01:12:00;;;;;;;20.17;9.57;;;0.20;90.00;;;;;;5093336;28;20050;-73
2021/01/10 01:14:26;;;;;;;20.10;10.20;;;0.20;90.00;;;;;;5074802;28;20028;-73
2021/01/10 01:16:51;;;;;;;20.07;9.47;;;0.10;90.00;;;;;;5091956;28;20028;-73
2021/01/10 01:19:17;;;;;;;18.73;9.63;;;0.10;90.10;;;;;;5093375;28;20353;-73
2021/01/10 01:21:43;;;;;;;20.13;9.80;;;0.20;90.20;;;;;;5091986;28;20048;-73
2021/01/10 01:24:09;;;;;;;21.47;9.70;;;0.10;90.10;;;;;;5091709;28;20074;-73
2021/01/10 01:26:34;;;;;;;22.07;9.77;;;0.10;90.20;;;;;;5093157;28;20028;-73
2021/01/10 01:29:00;;;;;;;16.97;9.13;;;0.30;90.20;;;;;;5093006;28;20031;-73
2021/01/10 01:31:27;;;;;;;19.33;9.23;;;0.10;90.10;;;;;;5091658;28;20050;-73
2021/01/10 01:33:54;;;;;;;17.13;9.47;;;0.10;90.20;;;;;;5092813;28;20028;-73
2021/01/10 01:36:27;;;;;;;20.07;10.67;;;0.00;90.20;;;;;;5092894;28;20285;-81
2021/01/10 01:38:55;;;;;;;18.05;9.25;;;0.00;90.10;;;;;;5091724;28;20642;-81
2021/01/10 01:41:21;;;;;;;24.03;10.80;;;0.00;90.20;;;;;;5091734;28;20016;-82
2021/01/10 01:43:47;;;;;;;20.07;11.47;;;0.00;90.20;;;;;;5092962;28;20761;-81
2021/01/10 01:46:33;;;;;;;21.60;11.00;;;0.00;90.30;;;;;;5092919;28;20099;-81
2021/01/10 01:49:02;;;;;;;19.47;10.87;;;0.00;90.40;;;;;;5091678;28;20391;-82
2021/01/10 01:51:28;;;;;;;19.97;10.83;;;0.10;90.50;;;;;;5093223;28;20316;-81
2021/01/10 01:53:54;;;;;;;21.33;11.10;;;0.10;90.50;;;;;;5091575;28;20071;-82
2021/01/10 01:56:20;;;;;;;23.17;11.13;;;0.10;90.50;;;;;;5057951;28;20078;-81
2021/01/10 01:59:00;;;;;;;22.50;10.13;;;0.10;90.40;;;;;;5091685;28;20664;-81
2021/01/10 02:01:28;;;;;;;23.17;11.03;;;0.10;90.40;;;;;;5091565;28;20103;-81
2021/01/10 02:04:17;;;;;;;19.67;10.37;;;0.10;90.40;;;;;;5091655;28;20293;-80
2021/01/10 02:07:01;;;;;;;19.97;11.63;;;0.00;90.40;;;;;;5093228;28;20277;-81
2021/01/10 02:09:29;;;;;;;18.27;10.00;;;0.10;90.50;;;;;;5096344;28;20303;-81
2021/01/10 02:11:59;;;;;;;20.37;10.20;;;0.00;90.50;;;;;;5096317;28;20032;-80
2021/01/10 02:14:29;;;;;;;19.27;10.40;;;0.00;90.50;;;;;;5096313;28;20283;-81
2021/01/10 02:16:55;;;;;;;17.07;9.87;;;0.00;90.60;;;;;;5096150;28;20322;-81
2021/01/10 02:19:25;;;;;;;19.60;10.57;;;0.10;90.70;;;;;;5078139;28;20765;-81
2021/01/10 02:21:54;;;;;;;20.70;10.83;;;0.10;90.80;;;;;;5096223;28;20282;-81
2021/01/10 02:24:20;;;;;;;18.53;10.30;;;0.10;90.80;;;;;;5095996;28;20331;-81
2021/01/10 02:26:47;;;;;;;23.73;11.70;;;0.10;90.90;;;;;;5096054;28;20479;-81
2021/01/10 02:29:13;;;;;;;21.90;11.87;;;0.20;90.90;;;;;;5096155;28;20323;-81
2021/01/10 02:31:40;;;;;;;19.43;10.57;;;0.20;90.90;;;;;;5077961;28;20282;-81
2021/01/10 02:34:07;;;;;;;19.87;11.27;;;0.20;90.90;;;;;;5095960;28;20099;-81
2021/01/10 02:36:48;;;;;;;17.77;10.30;;;0.20;90.90;;;;;;5094425;28;20301;-82
2021/01/10 02:39:26;;;;;;;21.07;10.40;;;0.20;90.90;;;;;;5096083;28;20313;-81
2021/01/10 02:41:59;;;;;;;19.40;10.83;;;0.20;90.80;;;;;;5096101;28;20435;-81
2021/01/10 02:44:36;;;;;;;16.95;9.35;;;0.20;90.70;;;;;;5094820;28;20026;-82
2021/01/10 02:47:02;;;;;;;19.33;9.50;;;0.20;90.70;;;;;;5094598;28;20073;-81
2021/01/10 02:49:28;;;;;;;18.13;10.10;;;0.20;90.60;;;;;;5095891;28;20331;-82
2021/01/10 02:51:54;;;;;;;19.83;10.50;;;0.20;90.60;;;;;;5095537;28;20048;-80
2021/01/10 02:54:20;;;;;;;24.40;10.83;;;0.10;90.60;;;;;;5096039;28;20070;-82
2021/01/10 02:56:52;;;;;;;18.77;9.33;;;0.10;90.50;;;;;;5095680;28;20368;-81
2021/01/10 02:59:22;;;;;;;20.33;10.23;;;0.10;90.50;;;;;;5095531;28;20303;-81
2021/01/10 03:01:48;;;;;;;20.17;10.67;;;0.00;90.50;;;;;;5094317;28;20270;-81
2021/01/10 03:04:15;;;;;;;20.23;11.40;;;0.00;90.80;;;;;;5095526;28;20289;-81
2021/01/10 03:06:42;;;;;;;22.13;10.87;;;0.00;90.50;;;;;;5095290;28;20278;-80
2021/01/10 03:09:09;;;;;;;20.87;10.43;;;-0.10;90.50;;;;;;5095372;28;20424;-81
2021/01/10 03:11:35;;;;;;;21.50;10.07;;;-0.10;90.60;;;;;;5077211;28;20282;-81
2021/01/10 03:14:02;;;;;;;20.73;10.57;;;-0.10;90.60;;;;;;5094046;28;20282;-81
2021/01/10 03:16:28;;;;;;;19.40;9.87;;;-0.10;90.70;;;;;;5095176;28;20286;-81
2021/01/10 03:18:54;;;;;;;19.67;10.73;;;-0.10;90.70;;;;;;5094760;28;20680;-81
2021/01/10 03:21:19;;;;;;;16.67;9.80;;;-0.10;90.80;;;;;;5076905;28;20032;-81
2021/01/10 03:23:45;;;;;;;20.17;10.90;;;-0.10;90.80;;;;;;5094020;28;20129;-81
2021/01/10 03:26:10;;;;;;;18.90;9.43;;;-0.10;90.80;;;;;;5093757;28;20035;-81
2021/01/10 03:28:36;;;;;;;17.47;9.77;;;-0.10;90.70;;;;;;5093716;28;20090;-82
2021/01/10 03:31:01;;;;;;;16.70;9.67;;;-0.10;90.80;;;;;;5094862;28;20039;-81
2021/01/10 03:33:27;;;;;;;17.53;9.17;;;-0.10;90.90;;;;;;5093590;28;20042;-81
2021/01/10 03:35:52;;;;;;;21.00;10.40;;;-0.10;90.90;;;;;;5093600;28;20421;-81
2021/01/10 03:38:18;;;;;;;19.80;9.67;;;-0.10;90.90;;;;;;5076646;28;20080;-81
2021/01/10 03:40:44;;;;;;;20.53;10.10;;;-0.10;90.90;;;;;;5093610;28;20028;-81
2021/01/10 03:43:09;;;;;;;19.33;9.20;;;-0.10;91.00;;;;;;5076537;28;20082;-81
2021/01/10 03:45:35;;;;;;;18.70;9.13;;;-0.10;91.00;;;;;;5093374;28;20032;-81
2021/01/10 03:48:00;;;;;;;19.63;9.93;;;-0.10;91.00;;;;;;5093378;28;20024;-82
2021/01/10 03:50:26;;;;;;;22.87;9.60;;;0.00;91.20;;;;;;5094535;28;20039;-82
2021/01/10 03:52:52;;;;;;;21.10;9.97;;;0.00;91.50;;;;;;5093102;28;20047;-81
2021/01/10 03:55:17;;;;;;;19.30;9.97;;;0.00;91.20;;;;;;5076200;28;20059;-82
2021/01/10 03:57:43;;;;;;;18.23;9.93;;;0.10;91.20;;;;;;5076121;28;20058;-81
2021/01/10 04:00:10;;;;;;;21.13;10.23;;;0.10;91.20;;;;;;5094185;28;20024;-81
2021/01/10 04:02:36;;;;;;;17.97;10.20;;;0.10;91.30;;;;;;5094285;28;20024;-81
2021/01/10 04:05:03;;;;;;;15.80;9.27;;;0.20;91.30;;;;;;5093019;28;20522;-81
2021/01/10 04:07:28;;;;;;;21.87;9.97;;;0.20;91.30;;;;;;5092859;28;20274;-82
2021/01/10 04:09:54;;;;;;;19.37;10.60;;;0.20;91.30;;;;;;5076157;28;20212;-81
2021/01/10 04:12:19;;;;;;;17.43;9.23;;;0.20;91.30;;;;;;5076179;28;20060;-82
2021/01/10 04:14:45;;;;;;;17.60;9.87;;;0.20;91.20;;;;;;5092720;28;20384;-81
2021/01/10 04:17:11;;;;;;;16.67;8.87;;;0.20;91.10;;;;;;5092838;28;20408;-81
2021/01/10 04:19:36;;;;;;;15.20;8.93;;;0.20;91.00;;;;;;5075841;28;20052;-81
2021/01/10 04:22:02;;;;;;;18.07;9.77;;;0.20;91.00;;;;;;5093000;28;20101;-81
2021/01/10 04:24:28;;;;;;;17.30;8.87;;;0.20;90.90;;;;;;5092943;28;20092;-73
2021/01/10 04:26:53;;;;;;;16.90;9.00;;;0.10;90.80;;;;;;5076029;28;20495;-73
2021/01/10 04:29:19;;;;;;;14.63;9.10;;;0.10;90.70;;;;;;5074971;28;20466;-73
2021/01/10 04:31:49;;;;;;;17.63;9.57;;;0.00;90.60;;;;;;5094082;28;20103;-73
2021/01/10 04:34:16;;;;;;;17.53;9.40;;;0.00;90.60;;;;;;5092328;28;20063;-73
2021/01/10 04:36:42;;;;;;;18.03;10.50;;;-0.10;90.60;;;;;;5093878;28;20351;-73
2021/01/10 04:39:08;;;;;;;17.50;9.73;;;-0.10;90.60;;;;;;5093692;28;20281;-73
2021/01/10 04:41:34;;;;;;;17.77;10.10;;;-0.20;90.60;;;;;;5094019;28;20384;-73
2021/01/10 04:44:00;;;;;;;18.80;10.73;;;-0.20;90.60;;;;;;5093738;28;20035;-73
2021/01/10 04:46:28;;;;;;;21.70;10.47;;;-0.20;90.60;;;;;;5092339;28;20341;-73
2021/01/10 04:48:55;;;;;;;19.80;9.93;;;-0.20;90.60;;;;;;5093616;28;20790;-73
2021/01/10 04:51:24;;;;;;;17.47;9.97;;;-0.30;90.60;;;;;;5085829;28;20373;-73
2021/01/10 04:53:50;;;;;;;19.57;10.20;;;-0.30;90.70;;;;;;5071312;28;20294;-73
2021/01/10 04:56:18;;;;;;;16.87;9.20;;;-0.30;90.70;;;;;;5072814;28;20325;-73
2021/01/10 04:58:52;;;;;;;18.30;9.27;;;-0.30;90.80;;;;;;5072526;28;20306;-73
2021/01/10 05:01:23;;;;;;;19.53;9.33;;;-0.30;90.80;;;;;;5071165;28;20816;-73
2021/01/10 05:03:54;;;;;;;16.33;9.80;;;-0.30;90.80;;;;;;5073517;28;20827;-73
2021/01/10 05:06:20;;;;;;;15.73;9.90;;;-0.30;90.90;;;;;;5071708;28;20637;-74
2021/01/10 05:08:46;;;;;;;20.43;9.73;;;-0.30;90.80;;;;;;5073542;28;20283;-73
2021/01/10 05:11:13;;;;;;;17.53;9.13;;;-0.30;90.80;;;;;;5073799;28;20351;-73
2021/01/10 05:13:38;;;;;;;18.23;9.20;;;-0.30;90.70;;;;;;5072006;28;20037;-73
2021/01/10 05:16:05;;;;;;;14.80;8.60;;;-0.40;90.70;;;;;;5071405;28;20471;-73
2021/01/10 05:18:32;;;;;;;15.80;9.63;;;-0.40;90.70;;;;;;5073307;28;20032;-73
2021/01/10 05:20:57;;;;;;;18.90;9.97;;;-0.40;90.80;;;;;;5072142;28;20312;-73
2021/01/10 05:23:26;;;;;;;16.70;9.43;;;-0.40;90.80;;;;;;5073248;28;20275;-73
2021/01/10 05:26:06;;;;;;;18.33;10.07;;;-0.50;90.80;;;;;;5071818;28;20035;-74
2021/01/10 05:28:35;;;;;;;19.43;9.90;;;-0.50;90.80;;;;;;5071944;28;20294;-73
2021/01/10 05:31:02;;;;;;;16.57;9.30;;;-0.50;90.90;;;;;;5072868;28;20313;-73
2021/01/10 05:33:27;;;;;;;17.70;9.43;;;-0.50;91.00;;;;;;5072955;28;20274;-73
2021/01/10 05:35:55;;;;;;;19.87;11.20;;;-0.60;91.00;;;;;;5072780;28;20291;-74
2021/01/10 05:38:32;;;;;;;23.53;9.90;;;-0.50;91.10;;;;;;5073122;28;20483;-74
2021/01/10 05:41:00;;;;;;;20.77;10.17;;;-0.50;91.20;;;;;;5072587;28;20279;-73
2021/01/10 05:43:26;;;;;;;18.90;9.60;;;-0.40;91.20;;;;;;5076691;28;20274;-73
2021/01/10 05:45:53;;;;;;;17.83;9.40;;;-0.40;91.10;;;;;;5077133;28;20310;-74
2021/01/10 05:48:19;;;;;;;17.97;9.47;;;-0.40;91.10;;;;;;5076508;28;20282;-74
2021/01/10 05:50:50;;;;;;;19.57;9.37;;;-0.40;91.20;;;;;;5075156;28;20287;-73
2021/01/10 05:53:21;;;;;;;17.40;9.37;;;-0.40;91.20;;;;;;5076324;28;20298;-73
2021/01/10 05:55:59;;;;;;;18.30;9.77;;;-0.40;91.30;;;;;;5075290;28;20689;-73
2021/01/10 05:58:30;;;;;;;19.10;9.63;;;-0.30;91.40;;;;;;5076442;28;20275;-73
2021/01/10 06:00:57;;;;;;;15.30;9.20;;;-0.30;91.50;;;;;;5075541;28;20816;-73
2021/01/10 06:03:24;;;;;;;23.70;10.37;;;-0.20;91.50;;;;;;5076847;28;20289;-73
2021/01/10 06:06:00;;;;;;;18.03;10.07;;;-0.20;91.50;;;;;;5076543;28;20351;-73
2021/01/10 06:08:40;;;;;;;17.93;9.60;;;-0.20;91.60;;;;;;5076472;28;20074;-73
2021/01/10 06:11:22;;;;;;;16.67;9.80;;;-0.10;91.60;;;;;;5075417;28;20623;-73
2021/01/10 06:13:52;;;;;;;15.53;9.30;;;0.00;91.60;;;;;;5076311;28;20128;-74
2021/01/10 06:16:18;;;;;;;17.47;9.67;;;-0.10;91.60;;;;;;5076131;28;20329;-74
2021/01/10 06:18:47;;;;;;;21.50;9.00;;;0.00;91.70;;;;;;5075404;28;20033;-73
2021/01/10 06:21:24;;;;;;;20.07;9.40;;;0.00;91.70;;;;;;5075602;28;20321;-73
2021/01/10 06:23:58;;;;;;;16.30;9.40;;;0.10;91.70;;;;;;5075284;28;20044;-73
2021/01/10 06:26:25;;;;;;;;;;;0.10;91.70;;;;;;5076107;28;20320;-73
2021/01/10 06:29:00;;;;;;;16.50;8.20;;;0.10;91.70;;;;;;5076045;28;19911;-73
2021/01/10 06:31:28;;;;;;;17.43;8.73;;;0.20;91.70;;;;;;5075953;28;20033;-73
2021/01/10 06:34:10;;;;;;;18.33;8.67;;;0.20;91.70;;;;;;5075524;28;20534;-73
2021/01/10 06:36:41;;;;;;;16.70;9.53;;;0.20;91.70;;;;;;5074641;28;20286;-73
2021/01/10 06:39:15;;;;;;;19.17;9.37;;;0.20;91.80;;;;;;5075595;28;20112;-73
2021/01/10 06:42:09;;;;;;;16.95;8.57;;;0.30;91.80;;;;;;5076168;28;20024;-73
2021/01/10 06:44:36;;;;;;;14.30;8.27;;;0.30;91.80;;;;;;5075930;28;20024;-73
2021/01/10 06:47:03;;;;;;;15.63;8.53;;;0.30;91.80;;;;;;5075591;28;20086;-73
2021/01/10 06:49:29;;;;;;;13.27;7.70;;;0.40;91.80;;;;;;5074493;28;20390;-73
2021/01/10 06:51:58;;;;;;;19.13;8.77;;;0.50;91.80;;;;;;5075259;28;20287;-73
2021/01/10 06:54:25;;;;;;;21.50;9.40;;;0.40;91.70;;;;;;5075381;28;20029;-73
2021/01/10 06:56:53;;;;;;;20.03;9.97;;;0.40;91.70;;;;;;5075691;28;20038;-74
2021/01/10 06:59:22;;;;;;;16.27;9.97;;;0.50;91.80;;;;;;5075339;28;20035;-73
2021/01/10 07:01:47;;;;;;;18.00;9.87;;;0.50;91.80;;;;;;5075630;28;20024;-73
2021/01/10 07:04:13;;;;;;;16.73;8.50;;;0.50;92.00;;;;;;5075253;28;20104;-73
2021/01/10 07:06:47;;;;;;;17.27;9.20;;;0.40;91.70;;;;;;5073892;28;20036;-73
2021/01/10 07:09:14;;;;;;;17.17;8.80;;;0.50;91.70;;;;;;5075238;28;20036;-73
2021/01/10 07:11:40;;;;;;;17.53;9.63;;;0.60;91.70;;;;;;5073675;28;20031;-73
2021/01/10 07:14:06;;;;;;;16.80;9.43;;;0.60;91.70;;;;;;5075101;28;20356;-73
2021/01/10 07:16:33;;;;;;;19.23;10.10;;;0.60;91.70;;;;;;5075182;28;20035;-73
2021/01/10 07:19:04;;;;;;;16.87;9.53;;;0.60;91.60;;;;;;5075164;28;20021;-73
2021/01/10 07:21:40;;;;;;;16.50;9.90;;;0.60;91.60;;;;;;5074770;28;20343;-74
2021/01/10 07:24:21;;;;;;;16.63;9.27;;;0.70;91.60;;;;;;5073856;28;20024;-74
2021/01/10 07:26:59;;;;;;;22.80;9.40;;;0.60;91.50;;;;;;5075059;28;20147;-73
2021/01/10 07:29:38;;;;;;;16.90;9.57;;;0.60;91.50;;;;;;5075158;28;20089;-74
2021/01/10 07:32:16;;;;;;;18.83;9.63;;;0.70;91.50;;;;;;5074778;28;20016;-73
2021/01/10 07:34:45;;;;;;;18.30;9.83;;;0.70;91.50;;;;;;5074986;28;20040;-73
2021/01/10 07:37:31;;;;;;;20.13;11.40;;;0.70;91.50;;;;;;5074735;28;20032;-73
2021/01/10 07:40:06;;;;;;;20.23;10.90;;;0.70;91.60;;;;;;5074626;28;20096;-74
2021/01/10 07:42:34;;;;;;;19.77;10.37;;;0.70;91.70;;;;;;5074396;28;20024;-74
2021/01/10 07:45:18;;;;;;;18.03;10.03;;;0.70;91.70;;;;;;5074747;28;20024;-73
2021/01/10 07:47:44;;;;;;;14.23;7.32;;;0.80;91.70;;;;;;5074407;28;20437;-73
2021/01/10 07:50:16;;;;;;;19.20;11.47;;;0.80;91.70;;;;;;5074379;28;20027;-74
2021/01/10 07:52:41;;;;;;;21.33;11.27;;;0.80;91.70;;;;;;5073931;28;20097;-74
2021/01/10 07:55:19;;;;;;;19.40;10.80;;;0.80;91.70;;;;;;5074237;28;20028;-74
2021/01/10 07:57:51;;;;;;;18.33;10.23;;;0.90;91.80;;;;;;5074123;28;20028;-73
2021/01/10 08:00:33;;;;;;;18.27;10.33;;;0.90;91.80;;;;;;5073947;28;20029;-73
2021/01/10 08:03:04;;;;;;;22.30;10.37;;;0.90;91.80;;;;;;5074225;28;20087;-73
2021/01/10 08:05:57;;;;;;;14.97;9.60;;;1.00;91.80;;;;;;5071859;28;20020;-73
2021/01/10 08:08:41;;;;;;;17.90;9.93;;;1.10;91.90;;;;;;5074357;28;20036;-73
2021/01/10 08:11:08;;;;;;;14.57;9.25;;;1.20;91.90;;;;;;5074134;28;20066;-73
2021/01/10 08:13:41;;;;;;;18.10;8.90;;;1.20;91.90;;;;;;5073893;28;20028;-73
2021/01/10 08:16:28;;;;;;;17.38;9.55;;;1.20;91.90;;;;;;5073723;28;20388;-73
2021/01/10 08:18:53;;;;;;;15.37;9.80;;;1.20;91.80;;;;;;5072539;28;20452;-73
2021/01/10 08:21:19;;;;;;;15.67;9.93;;;1.30;91.80;;;;;;5074119;28;20027;-73
2021/01/10 08:23:52;;;;;;;19.87;10.53;;;1.30;91.80;;;;;;5073526;28;20082;-73
2021/01/10 08:26:18;;;;;;;17.40;10.50;;;1.30;92.00;;;;;;5073846;28;20032;-73
2021/01/10 08:28:49;;;;;;;18.33;9.90;;;1.30;91.80;;;;;;5073986;28;20029;-74
2021/01/10 08:31:17;;;;;;;16.80;10.50;;;1.40;91.90;;;;;;5072250;28;20104;-73
2021/01/10 08:33:43;;;;;;;17.17;10.50;;;1.40;91.90;;;;;;5073411;28;20380;-81
2021/01/10 08:36:22;;;;;;;17.27;10.33;;;1.40;91.90;;;;;;5073452;28;20028;-81
2021/01/10 08:38:53;;;;;;;16.97;9.97;;;1.40;91.90;;;;;;5073408;28;20380;-81
2021/01/10 08:41:40;;;;;;;17.70;10.20;;;1.50;91.90;;;;;;5073503;28;20025;-81
2021/01/10 08:44:13;;;;;;;15.33;9.37;;;1.50;92.00;;;;;;5073500;28;20373;-81
2021/01/10 08:46:43;;;;;;;18.40;10.00;;;1.60;92.00;;;;;;5073372;28;20073;-81
2021/01/10 08:49:09;;;;;;;19.43;9.77;;;1.60;92.00;;;;;;5072153;28;20016;-81
2021/01/10 08:51:41;;;;;;;18.47;10.40;;;1.60;91.90;;;;;;5072085;28;20025;-82
2021/01/10 08:54:10;;;;;;;18.27;10.03;;;1.70;91.90;;;;;;5071925;28;20133;-81
2021/01/10 08:56:36;;;;;;;18.83;10.37;;;1.60;91.90;;;;;;5073297;28;20028;-81
2021/01/10 08:59:03;;;;;;;16.57;10.07;;;1.70;92.00;;;;;;5073152;28;20484;-81
2021/01/10 09:01:29;;;;;;;17.10;10.13;;;1.70;92.00;;;;;;5088926;28;20021;-82
2021/01/10 09:04:15;;;;;;;16.07;9.67;;;1.80;92.10;;;;;;5093345;28;20028;-82
2021/01/10 09:07:13;;;;;;;17.73;9.77;;;1.90;92.10;;;;;;5094204;28;20035;-81
2021/01/10 09:09:50;;;;;;;20.73;10.83;;;1.90;92.00;;;;;;5087267;28;20506;-81
2021/01/10 09:12:35;;;;;;;19.43;10.10;;;1.90;92.00;;;;;;5073253;28;20021;-81
2021/01/10 09:15:15;;;;;;;20.47;9.97;;;2.00;92.30;;;;;;5073197;28;20115;-81
2021/01/10 09:17:47;;;;;;;17.23;10.27;;;2.00;92.00;;;;;;5083240;28;20024;-82
2021/01/10 09:20:18;;;;;;;17.37;9.70;;;2.00;92.00;;;;;;5072055;28;20165;-82
2021/01/10 09:22:44;;;;;;;19.00;11.40;;;2.10;92.00;;;;;;5083665;28;20031;-81
2021/01/10 09:25:11;;;;;;;14.57;9.47;;;2.10;91.90;;;;;;5086695;28;20032;-81
2021/01/10 09:27:37;;;;;;;17.03;10.90;;;2.10;91.90;;;;;;5088803;28;20085;-82
2021/01/10 09:30:06;;;;;;;20.53;11.07;;;2.20;91.90;;;;;;5078760;28;20032;-82
2021/01/10 09:32:33;;;;;;;19.27;11.37;;;2.20;91.90;;;;;;5081071;28;20111;-82
2021/01/10 09:34:59;;;;;;;15.10;10.60;;;2.20;92.00;;;;;;5097087;28;20112;-81
2021/01/10 09:37:30;;;;;;;17.33;10.43;;;2.30;92.00;;;;;;5082935;28;20033;-81
2021/01/10 09:40:09;;;;;;;19.23;10.70;;;2.30;92.00;;;;;;5095433;28;20024;-82
2021/01/10 09:42:46;;;;;;;18.27;10.67;;;2.40;92.00;;;;;;5097039;28;20116;-82
2021/01/10 09:45:13;;;;;;;18.10;11.53;;;2.40;92.00;;;;;;5086884;28;20064;-82
2021/01/10 09:47:39;;;;;;;17.33;10.70;;;2.50;92.00;;;;;;5075785;28;20333;-82
2021/01/10 09:50:18;;;;;;;17.87;9.97;;;2.60;92.10;;;;;;5075430;28;20040;-82
2021/01/10 09:52:52;;;;;;;14.90;10.10;;;2.70;92.20;;;;;;5075667;28;20385;-81
2021/01/10 09:55:19;;;;;;;;;;;2.90;92.40;;;;;;5090694;28;20021;-81
2021/01/10 09:57:44;;;;;;;13.23;8.10;;;3.10;92.50;;;;;;5079845;28;20010;-82
2021/01/10 10:00:15;;;;;;;15.63;9.07;;;3.40;92.70;;;;;;5092912;28;20467;-82
2021/01/10 10:02:41;;;;;;;15.53;9.43;;;3.60;92.50;;;;;;5088582;28;20024;-82
2021/01/10 10:05:11;;;;;;;17.33;9.07;;;3.80;92.60;;;;;;5088204;28;20034;-82
2021/01/10 10:07:40;;;;;;;16.53;9.80;;;3.90;92.50;;;;;;5078813;28;20017;-81
2021/01/10 10:10:25;;;;;;;15.00;9.73;;;4.00;92.40;;;;;;5084532;28;20092;-81
2021/01/10 10:12:57;;;;;;;15.93;9.23;;;4.10;92.30;;;;;;5096278;28;20028;-81
2021/01/10 10:15:40;;;;;;;17.50;10.53;;;4.20;92.20;;;;;;5090760;28;20068;-82
2021/01/10 10:18:07;;;;;;;16.20;11.30;;;4.20;92.10;;;;;;5086664;28;20502;-82
2021/01/10 10:20:33;;;;;;;17.03;10.63;;;4.30;92.10;;;;;;5076362;28;20024;-81
2021/01/10 10:23:16;;;;;;;14.60;9.20;;;4.40;91.90;;;;;;5076171;28;20053;-82
2021/01/10 10:25:44;;;;;;;18.38;10.50;;;4.40;91.60;;;;;;5057986;28;20028;-81
2021/01/10 10:28:10;;;;;;;15.60;10.90;;;4.40;91.30;;;;;;5073569;28;20024;-82
2021/01/10 10:30:37;;;;;;;19.80;11.63;;;4.30;91.20;;;;;;5076395;28;20033;-82
2021/01/10 10:33:04;;;;;;;18.90;11.30;;;4.30;91.10;;;;;;5075946;28;20488;-82
2021/01/10 10:35:30;;;;;;;16.33;10.97;;;4.30;90.90;;;;;;5074691;28;20028;-82
2021/01/10 10:37:55;;;;;;;20.30;11.57;;;4.30;90.80;;;;;;5058333;28;20039;-82
2021/01/10 10:40:21;;;;;;;16.50;11.73;;;4.20;90.70;;;;;;5057859;28;20032;-82
2021/01/10 10:42:48;;;;;;;15.27;11.20;;;4.30;90.60;;;;;;5074376;28;20025;-82
2021/01/10 10:45:14;;;;;;;20.50;11.70;;;4.30;90.50;;;;;;5074397;28;20031;-82
2021/01/10 10:47:40;;;;;;;19.20;11.47;;;4.30;90.50;;;;;;5075561;28;20041;-82
2021/01/10 10:50:08;;;;;;;19.30;11.33;;;4.30;90.40;;;;;;5074303;28;20032;-82
2021/01/10 10:52:33;;;;;;;18.30;11.97;;;4.30;90.40;;;;;;5075567;28;20123;-81
2021/01/10 10:54:59;;;;;;;21.50;11.83;;;4.30;90.30;;;;;;5074005;28;20059;-81
2021/01/10 10:57:24;;;;;;;20.50;11.67;;;4.40;90.20;;;;;;5074191;28;20035;-82
2021/01/10 10:59:50;;;;;;;18.40;12.63;;;4.40;90.20;;;;;;5075509;28;20476;-82
2021/01/10 11:02:16;;;;;;;20.30;11.50;;;4.40;90.10;;;;;;5074251;28;20089;-82
2021/01/10 11:04:45;;;;;;;16.33;11.23;;;4.40;90.00;;;;;;5057353;28;20021;-82
2021/01/10 11:07:10;;;;;;;18.50;12.10;;;4.40;90.00;;;;;;5057797;28;20464;-82
2021/01/10 11:09:36;;;;;;;20.20;12.20;;;4.50;90.00;;;;;;5075189;28;20028;-82
2021/01/10 11:12:02;;;;;;;17.73;11.57;;;4.60;90.00;;;;;;5075157;28;20029;-81
2021/01/10 11:14:28;;;;;;;14.37;9.40;;;4.80;90.50;;;;;;5073971;28;20480;-83
2021/01/10 11:16:54;;;;;;;12.77;8.37;;;5.50;92.00;;;;;;5075025;28;20033;-79
2021/01/10 11:19:23;;;;;;;15.07;9.87;;;6.10;92.60;;;;;;5073723;28;20051;-80
2021/01/10 11:21:51;;;;;;;14.73;8.73;;;6.40;92.10;;;;;;5073731;28;20035;-80
2021/01/10 11:24:18;;;;;;;15.30;9.17;;;6.90;92.00;;;;;;5073689;28;20123;-81
2021/01/10 11:26:45;;;;;;;16.90;8.93;;;7.40;91.70;;;;;;5093661;28;20036;-81
2021/01/10 11:29:12;;;;;;;11.43;7.63;;;7.60;91.00;;;;;;5095062;28;20028;-81
2021/01/10 11:31:39;;;;;;;12.53;8.40;;;7.90;90.70;;;;;;5077010;28;20051;-81
2021/01/10 11:34:11;;;;;;;10.47;7.17;;;8.30;90.50;;;;;;5093687;28;20123;-81
2021/01/10 11:36:45;;;;;;;12.40;7.90;;;8.70;89.90;;;;;;5093539;28;20035;-84
2021/01/10 11:39:11;;;;;;;11.20;7.32;;;8.90;88.50;;;;;;5080200;28;20030;-81
2021/01/10 11:41:41;;;;;;;13.32;7.65;;;9.20;86.80;;;;;;5079560;28;20111;-81
2021/01/10 11:44:07;;;;;;;12.38;7.25;;;9.40;85.70;;;;;;5081079;28;20111;-81
2021/01/10 11:46:33;;;;;;;10.43;7.30;;;9.70;84.70;;;;;;5073056;28;20485;-81
2021/01/10 11:48:58;;;;;;;13.68;6.95;;;9.80;83.60;;;;;;5057005;28;20027;-81
2021/01/10 11:51:25;;;;;;;11.77;6.65;;;9.90;82.80;;;;;;5056192;28;20095;-82
2021/01/10 11:53:51;;;;;;;16.83;6.95;;;10.00;81.70;;;;;;5099794;28;20566;-82
2021/01/10 11:56:17;;;;;;;13.60;7.68;;;9.90;80.20;;;;;;5113385;28;20363;-82
2021/01/10 11:58:42;;;;;;;10.95;6.65;;;9.90;80.00;;;;;;5115214;28;20024;-83
2021/01/10 12:01:09;;;;;;;11.40;7.00;;;10.30;80.20;;;;;;5081898;28;20109;-82
2021/01/10 12:03:35;;;;;;;13.05;5.63;;;10.80;78.90;;;;;;5074112;28;20127;-80
2021/01/10 12:06:01;;;;;;;10.25;5.30;;;11.40;79.40;;;;;;5093460;28;20024;-84
2021/01/10 12:08:28;;;;;;;8.63;4.93;;;12.00;78.30;;;;;;5092931;28;20383;-81
2021/01/10 12:10:55;;;;;;;7.75;4.20;;;12.70;76.60;;;;;;5084902;28;20040;-77
2021/01/10 12:13:20;;;;;;;6.57;4.38;;;13.20;73.20;;;;;;5073014;28;20039;-77
2021/01/10 12:15:47;;;;;;;8.00;4.22;;;13.70;71.00;;;;;;5075906;28;20178;-81
2021/01/10 12:18:13;;;;;;;7.43;4.28;;;14.20;69.90;;;;;;5092715;28;20034;-79
2021/01/10 12:20:39;;;;;;;6.80;4.20;;;14.30;64.30;;;;;;5092665;28;20115;-80
2021/01/10 12:23:05;;;;;;;8.05;4.50;;;14.30;62.90;;;;;;5075825;28;20428;-81
2021/01/10 12:25:32;;;;;;;9.90;4.13;;;14.00;60.80;;;;;;5092580;28;20392;-78
2021/01/10 12:27:58;;;;;;;9.15;4.30;;;13.60;60.90;;;;;;5093599;28;20056;-81
2021/01/10 12:30:25;;;;;;;8.07;4.50;;;13.30;60.00;;;;;;5075431;28;20032;-82
2021/01/10 12:32:51;;;;;;;9.05;5.20;;;13.20;58.60;;;;;;5075504;28;20060;-81
2021/01/10 12:35:18;;;;;;;7.55;4.22;;;13.00;59.80;;;;;;5093525;28;20063;-83
2021/01/10 12:37:46;;;;;;;10.07;4.60;;;13.20;60.50;;;;;;5093713;28;20024;-82
2021/01/10 12:40:13;;;;;;;7.55;3.45;;;13.50;59.90;;;;;;5093659;28;20479;-82
2021/01/10 12:42:39;;;;;;;10.13;4.35;;;13.70;59.50;;;;;;5093441;28;20028;-81
2021/01/10 12:45:10;;;;;;;9.90;4.38;;;13.90;58.70;;;;;;5093758;28;20031;-81
2021/01/10 12:47:36;;;;;;;8.80;4.97;;;14.10;57.60;;;;;;5093371;28;20024;-81
2021/01/10 12:50:03;;;;;;;9.55;4.82;;;14.20;56.50;;;;;;5091662;28;20508;-82